Beachwood, Ohio
Current Conditions -  °F | °C
As of 10:45 PM on Friday 28 Nov 2014 (Local Time) from KCGF Reporting Station
Overcast Overcast  
Wind Chill: 17°   Ceiling: 7000
Heat Index: 28°   Visibility: 10mi
Dew Point: 23°   Wind: 16mph
Humidity: 80%   Direction: 170°S
Pressure: 30.14"   Gusts: NA
Location:  41.49°N, 81.5°W
Report Text: KCGF 290345Z 17014KT 10SM OVC070 M02/M05 A3014
Loading
Personal Weather Stations






























Interactive Weather Map New forecast layout! Learn more

10-Day Weather Forecast

Advertisements
Track Severe Weather on mobile